sensor_id;sensor_type;location;lat;lon;timestamp;P1;durP1;ratioP1;P2;durP2;ratioP2
39948;SDS011;29070;48.102;-1.652;2023-02-01T00:04:55;15.93;;;2.53;;
39948;SDS011;29070;48.102;-1.652;2023-02-01T00:09:55;17.63;;;2.70;;
39948;SDS011;29070;48.102;-1.652;2023-02-01T00:14:55;8.70;;;1.90;;
39948;SDS011;29070;48.102;-1.652;2023-02-01T00:19:56;14.67;;;2.30;;
39948;SDS011;29070;48.102;-1.652;2023-02-01T00:24:56;12.77;;;2.83;;
39948;SDS011;29070;48.102;-1.652;2023-02-01T00:29:56;13.47;;;2.13;;
39948;SDS011;29070;48.102;-1.652;2023-02-01T00:34:57;12.63;;;2.10;;
39948;SDS011;29070;48.102;-1.652;2023-02-01T00:39:57;9.27;;;2.03;;
39948;SDS011;29070;48.102;-1.652;2023-02-01T00:44:58;15.55;;;2.30;;
39948;SDS011;29070;48.102;-1.652;2023-02-01T00:49:58;18.33;;;3.50;;
39948;SDS011;29070;48.102;-1.652;2023-02-01T00:54:58;18.03;;;2.93;;
39948;SDS011;29070;48.102;-1.652;2023-02-01T00:59:59;15.43;;;2.40;;
39948;SDS011;29070;48.102;-1.652;2023-02-01T01:04:59;13.17;;;2.50;;
39948;SDS011;29070;48.102;-1.652;2023-02-01T01:09:59;9.73;;;2.67;;
39948;SDS011;29070;48.102;-1.652;2023-02-01T01:15:00;9.30;;;2.05;;
39948;SDS011;29070;48.102;-1.652;2023-02-01T01:20:00;10.43;;;2.60;;
39948;SDS011;29070;48.102;-1.652;2023-02-01T01:25:01;12.38;;;2.15;;
39948;SDS011;29070;48.102;-1.652;2023-02-01T01:30:02;13.60;;;2.47;;
39948;SDS011;29070;48.102;-1.652;2023-02-01T01:35:02;8.60;;;2.10;;
39948;SDS011;29070;48.102;-1.652;2023-02-01T01:40:03;15.05;;;3.17;;
39948;SDS011;29070;48.102;-1.652;2023-02-01T01:45:06;20.98;;;3.22;;
39948;SDS011;29070;48.102;-1.652;2023-02-01T01:50:31;14.05;;;2.03;;
39948;SDS011;29070;48.102;-1.652;2023-02-01T01:55:36;14.63;;;3.45;;
39948;SDS011;29070;48.102;-1.652;2023-02-01T02:00:42;15.80;;;2.20;;
39948;SDS011;29070;48.102;-1.652;2023-02-01T02:05:43;15.38;;;2.45;;
39948;SDS011;29070;48.102;-1.652;2023-02-01T02:10:46;14.18;;;2.63;;
39948;SDS011;29070;48.102;-1.652;2023-02-01T02:16:13;20.23;;;2.60;;
39948;SDS011;29070;48.102;-1.652;2023-02-01T02:32:45;9.02;;;2.08;;
39948;SDS011;29070;48.102;-1.652;2023-02-01T02:43:16;13.45;;;2.15;;
39948;SDS011;29070;48.102;-1.652;2023-02-01T02:48:47;10.75;;;2.67;;
39948;SDS011;29070;48.102;-1.652;2023-02-01T02:59:28;13.67;;;2.23;;
39948;SDS011;29070;48.102;-1.652;2023-02-01T03:04:53;19.42;;;3.10;;
39948;SDS011;29070;48.102;-1.652;2023-02-01T03:09:57;15.48;;;2.67;;
39948;SDS011;29070;48.102;-1.652;2023-02-01T03:15:06;17.63;;;2.15;;
39948;SDS011;29070;48.102;-1.652;2023-02-01T03:20:12;10.00;;;2.08;;
39948;SDS011;29070;48.102;-1.652;2023-02-01T03:25:15;12.35;;;2.20;;
39948;SDS011;29070;48.102;-1.652;2023-02-01T03:30:25;13.65;;;2.72;;
39948;SDS011;29070;48.102;-1.652;2023-02-01T03:40:53;11.98;;;3.40;;
39948;SDS011;29070;48.102;-1.652;2023-02-01T03:46:01;10.88;;;2.50;;
39948;SDS011;29070;48.102;-1.652;2023-02-01T03:51:06;15.80;;;2.28;;
39948;SDS011;29070;48.102;-1.652;2023-02-01T03:56:08;11.60;;;1.85;;
39948;SDS011;29070;48.102;-1.652;2023-02-01T04:01:11;16.98;;;3.03;;
39948;SDS011;29070;48.102;-1.652;2023-02-01T04:06:11;11.40;;;2.93;;
39948;SDS011;29070;48.102;-1.652;2023-02-01T04:11:13;14.52;;;2.78;;
39948;SDS011;29070;48.102;-1.652;2023-02-01T04:16:13;11.52;;;2.45;;
39948;SDS011;29070;48.102;-1.652;2023-02-01T04:21:14;12.23;;;2.17;;
39948;SDS011;29070;48.102;-1.652;2023-02-01T04:26:14;12.20;;;2.03;;
39948;SDS011;29070;48.102;-1.652;2023-02-01T04:31:16;15.15;;;2.83;;
39948;SDS011;29070;48.102;-1.652;2023-02-01T04:36:17;11.15;;;2.13;;
39948;SDS011;29070;48.102;-1.652;2023-02-01T04:41:19;9.98;;;2.80;;
39948;SDS011;29070;48.102;-1.652;2023-02-01T04:46:20;14.63;;;2.53;;
39948;SDS011;29070;48.102;-1.652;2023-02-01T04:51:20;16.17;;;3.00;;
39948;SDS011;29070;48.102;-1.652;2023-02-01T04:56:20;14.53;;;2.43;;
39948;SDS011;29070;48.102;-1.652;2023-02-01T05:01:21;15.90;;;2.20;;
39948;SDS011;29070;48.102;-1.652;2023-02-01T05:06:22;16.08;;;2.42;;
39948;SDS011;29070;48.102;-1.652;2023-02-01T05:11:23;12.63;;;2.83;;
39948;SDS011;29070;48.102;-1.652;2023-02-01T05:16:42;15.07;;;2.45;;
39948;SDS011;29070;48.102;-1.652;2023-02-01T05:21:42;12.60;;;2.30;;
39948;SDS011;29070;48.102;-1.652;2023-02-01T05:26:42;9.87;;;2.03;;
39948;SDS011;29070;48.102;-1.652;2023-02-01T05:31:46;8.67;;;1.80;;
39948;SDS011;29070;48.102;-1.652;2023-02-01T05:36:47;11.40;;;2.22;;
39948;SDS011;29070;48.102;-1.652;2023-02-01T05:41:47;8.83;;;1.80;;
39948;SDS011;29070;48.102;-1.652;2023-02-01T05:46:49;11.15;;;2.10;;
39948;SDS011;29070;48.102;-1.652;2023-02-01T05:51:49;11.30;;;2.10;;
39948;SDS011;29070;48.102;-1.652;2023-02-01T05:56:49;15.90;;;2.33;;
39948;SDS011;29070;48.102;-1.652;2023-02-01T06:01:50;15.17;;;2.30;;
39948;SDS011;29070;48.102;-1.652;2023-02-01T06:06:50;15.93;;;2.83;;
39948;SDS011;29070;48.102;-1.652;2023-02-01T06:11:50;10.83;;;2.10;;
39948;SDS011;29070;48.102;-1.652;2023-02-01T06:16:51;16.30;;;2.27;;
39948;SDS011;29070;48.102;-1.652;2023-02-01T06:21:51;13.98;;;2.45;;
39948;SDS011;29070;48.102;-1.652;2023-02-01T06:26:51;18.52;;;2.85;;
39948;SDS011;29070;48.102;-1.652;2023-02-01T06:31:52;15.30;;;2.87;;
39948;SDS011;29070;48.102;-1.652;2023-02-01T06:36:52;9.67;;;2.10;;
39948;SDS011;29070;48.102;-1.652;2023-02-01T06:41:54;12.82;;;2.50;;
39948;SDS011;29070;48.102;-1.652;2023-02-01T06:46:55;13.60;;;2.20;;
39948;SDS011;29070;48.102;-1.652;2023-02-01T06:51:55;10.27;;;2.28;;
39948;SDS011;29070;48.102;-1.652;2023-02-01T06:56:56;8.32;;;2.53;;
39948;SDS011;29070;48.102;-1.652;2023-02-01T07:01:56;12.73;;;2.80;;
39948;SDS011;29070;48.102;-1.652;2023-02-01T07:06:56;17.03;;;3.30;;
39948;SDS011;29070;48.102;-1.652;2023-02-01T07:11:57;19.87;;;3.70;;
39948;SDS011;29070;48.102;-1.652;2023-02-01T07:16:57;21.47;;;3.33;;
39948;SDS011;29070;48.102;-1.652;2023-02-01T07:21:57;14.90;;;2.80;;
39948;SDS011;29070;48.102;-1.652;2023-02-01T07:26:58;19.63;;;3.30;;
39948;SDS011;29070;48.102;-1.652;2023-02-01T07:31:58;14.07;;;2.27;;
39948;SDS011;29070;48.102;-1.652;2023-02-01T07:36:58;17.73;;;3.53;;
39948;SDS011;29070;48.102;-1.652;2023-02-01T07:41:58;16.43;;;2.77;;
39948;SDS011;29070;48.102;-1.652;2023-02-01T07:46:59;11.97;;;2.73;;
39948;SDS011;29070;48.102;-1.652;2023-02-01T07:51:59;15.30;;;3.07;;
39948;SDS011;29070;48.102;-1.652;2023-02-01T07:57:00;16.20;;;3.00;;
39948;SDS011;29070;48.102;-1.652;2023-02-01T08:02:00;16.23;;;3.30;;
39948;SDS011;29070;48.102;-1.652;2023-02-01T08:07:00;13.73;;;3.33;;
39948;SDS011;29070;48.102;-1.652;2023-02-01T08:12:01;15.13;;;2.93;;
39948;SDS011;29070;48.102;-1.652;2023-02-01T08:17:01;23.75;;;3.30;;
39948;SDS011;29070;48.102;-1.652;2023-02-01T08:22:01;19.37;;;3.33;;
39948;SDS011;29070;48.102;-1.652;2023-02-01T08:27:06;13.37;;;2.70;;
39948;SDS011;29070;48.102;-1.652;2023-02-01T08:32:06;20.23;;;3.90;;
39948;SDS011;29070;48.102;-1.652;2023-02-01T08:37:07;14.73;;;2.90;;
39948;SDS011;29070;48.102;-1.652;2023-02-01T08:42:07;13.73;;;2.80;;
39948;SDS011;29070;48.102;-1.652;2023-02-01T08:47:26;11.05;;;2.25;;
39948;SDS011;29070;48.102;-1.652;2023-02-01T08:52:26;12.93;;;3.30;;
39948;SDS011;29070;48.102;-1.652;2023-02-01T08:57:27;14.25;;;2.78;;
39948;SDS011;29070;48.102;-1.652;2023-02-01T09:02:27;17.50;;;2.93;;
39948;SDS011;29070;48.102;-1.652;2023-02-01T09:07:27;13.97;;;3.53;;
39948;SDS011;29070;48.102;-1.652;2023-02-01T09:12:28;16.83;;;3.87;;
39948;SDS011;29070;48.102;-1.652;2023-02-01T09:17:30;11.95;;;2.80;;
39948;SDS011;29070;48.102;-1.652;2023-02-01T09:22:31;12.43;;;2.87;;
39948;SDS011;29070;48.102;-1.652;2023-02-01T09:27:31;23.03;;;4.67;;
39948;SDS011;29070;48.102;-1.652;2023-02-01T09:32:31;17.40;;;3.70;;
39948;SDS011;29070;48.102;-1.652;2023-02-01T09:37:32;16.65;;;4.05;;
39948;SDS011;29070;48.102;-1.652;2023-02-01T09:47:55;18.05;;;3.03;;
39948;SDS011;29070;48.102;-1.652;2023-02-01T09:53:10;15.07;;;2.65;;
39948;SDS011;29070;48.102;-1.652;2023-02-01T09:58:20;17.27;;;3.08;;
39948;SDS011;29070;48.102;-1.652;2023-02-01T10:03:28;13.55;;;2.75;;
39948;SDS011;29070;48.102;-1.652;2023-02-01T10:13:58;15.43;;;3.20;;
39948;SDS011;29070;48.102;-1.652;2023-02-01T10:29:57;14.68;;;2.85;;
39948;SDS011;29070;48.102;-1.652;2023-02-01T10:35:00;16.35;;;3.13;;
39948;SDS011;29070;48.102;-1.652;2023-02-01T10:40:15;19.08;;;3.83;;
39948;SDS011;29070;48.102;-1.652;2023-02-01T10:45:20;11.50;;;3.15;;
39948;SDS011;29070;48.102;-1.652;2023-02-01T10:50:38;12.03;;;2.30;;
39948;SDS011;29070;48.102;-1.652;2023-02-01T10:56:14;17.10;;;2.55;;
39948;SDS011;29070;48.102;-1.652;2023-02-01T11:01:22;18.70;;;3.42;;
39948;SDS011;29070;48.102;-1.652;2023-02-01T11:11:33;10.90;;;3.10;;
39948;SDS011;29070;48.102;-1.652;2023-02-01T11:16:54;13.13;;;3.22;;
39948;SDS011;29070;48.102;-1.652;2023-02-01T11:21:58;12.77;;;2.88;;
39948;SDS011;29070;48.102;-1.652;2023-02-01T11:27:01;16.77;;;3.03;;
39948;SDS011;29070;48.102;-1.652;2023-02-01T11:32:03;14.43;;;2.60;;
39948;SDS011;29070;48.102;-1.652;2023-02-01T11:37:05;19.42;;;2.42;;
39948;SDS011;29070;48.102;-1.652;2023-02-01T11:42:18;18.95;;;3.20;;
39948;SDS011;29070;48.102;-1.652;2023-02-01T12:03:28;12.63;;;2.85;;
39948;SDS011;29070;48.102;-1.652;2023-02-01T12:08:51;9.43;;;2.50;;
39948;SDS011;29070;48.102;-1.652;2023-02-01T12:20:17;7.22;;;2.17;;
39948;SDS011;29070;48.102;-1.652;2023-02-01T12:52:05;11.13;;;2.20;;
39948;SDS011;29070;48.102;-1.652;2023-02-01T12:57:15;13.88;;;2.17;;
39948;SDS011;29070;48.102;-1.652;2023-02-01T13:02:39;10.57;;;2.38;;
39948;SDS011;29070;48.102;-1.652;2023-02-01T13:13:00;12.93;;;2.40;;
39948;SDS011;29070;48.102;-1.652;2023-02-01T13:18:11;18.00;;;2.10;;
39948;SDS011;29070;48.102;-1.652;2023-02-01T13:23:25;7.78;;;2.10;;
39948;SDS011;29070;48.102;-1.652;2023-02-01T13:49:46;13.13;;;2.40;;
39948;SDS011;29070;48.102;-1.652;2023-02-01T13:54:47;13.70;;;2.28;;
39948;SDS011;29070;48.102;-1.652;2023-02-01T13:59:51;17.30;;;3.33;;
39948;SDS011;29070;48.102;-1.652;2023-02-01T14:04:54;16.40;;;3.15;;
39948;SDS011;29070;48.102;-1.652;2023-02-01T14:09:54;12.30;;;2.72;;
39948;SDS011;29070;48.102;-1.652;2023-02-01T14:15:14;17.70;;;3.43;;
39948;SDS011;29070;48.102;-1.652;2023-02-01T14:26:13;19.15;;;3.38;;
39948;SDS011;29070;48.102;-1.652;2023-02-01T14:31:27;9.80;;;2.85;;
39948;SDS011;29070;48.102;-1.652;2023-02-01T14:36:53;18.02;;;2.97;;
39948;SDS011;29070;48.102;-1.652;2023-02-01T14:52:46;19.03;;;2.80;;
39948;SDS011;29070;48.102;-1.652;2023-02-01T14:57:48;18.38;;;3.30;;
39948;SDS011;29070;48.102;-1.652;2023-02-01T15:02:51;16.92;;;3.50;;
39948;SDS011;29070;48.102;-1.652;2023-02-01T15:07:53;12.07;;;3.42;;
39948;SDS011;29070;48.102;-1.652;2023-02-01T15:12:54;12.20;;;3.40;;
39948;SDS011;29070;48.102;-1.652;2023-02-01T15:17:57;16.93;;;2.50;;
39948;SDS011;29070;48.102;-1.652;2023-02-01T15:23:03;17.50;;;2.70;;
39948;SDS011;29070;48.102;-1.652;2023-02-01T15:28:09;9.15;;;2.13;;
39948;SDS011;29070;48.102;-1.652;2023-02-01T15:43:23;11.90;;;2.60;;
39948;SDS011;29070;48.102;-1.652;2023-02-01T15:48:26;13.15;;;2.45;;
39948;SDS011;29070;48.102;-1.652;2023-02-01T15:53:30;12.38;;;3.35;;
39948;SDS011;29070;48.102;-1.652;2023-02-01T15:58:31;16.38;;;2.95;;
39948;SDS011;29070;48.102;-1.652;2023-02-01T16:03:37;17.40;;;3.38;;
39948;SDS011;29070;48.102;-1.652;2023-02-01T16:09:01;16.48;;;4.10;;
39948;SDS011;29070;48.102;-1.652;2023-02-01T16:14:08;16.48;;;4.28;;
39948;SDS011;29070;48.102;-1.652;2023-02-01T16:19:09;18.57;;;4.70;;
39948;SDS011;29070;48.102;-1.652;2023-02-01T16:24:09;25.35;;;7.60;;
39948;SDS011;29070;48.102;-1.652;2023-02-01T16:29:10;18.80;;;6.93;;
39948;SDS011;29070;48.102;-1.652;2023-02-01T16:34:13;18.97;;;4.80;;
39948;SDS011;29070;48.102;-1.652;2023-02-01T16:39:18;21.52;;;5.88;;
39948;SDS011;29070;48.102;-1.652;2023-02-01T16:44:19;18.92;;;4.55;;
39948;SDS011;29070;48.102;-1.652;2023-02-01T16:49:23;16.33;;;4.33;;
39948;SDS011;29070;48.102;-1.652;2023-02-01T16:54:24;23.58;;;4.55;;
39948;SDS011;29070;48.102;-1.652;2023-02-01T16:59:26;29.42;;;8.70;;
39948;SDS011;29070;48.102;-1.652;2023-02-01T17:04:26;16.73;;;5.10;;
39948;SDS011;29070;48.102;-1.652;2023-02-01T17:09:27;25.80;;;6.27;;
39948;SDS011;29070;48.102;-1.652;2023-02-01T17:14:29;19.37;;;6.03;;
39948;SDS011;29070;48.102;-1.652;2023-02-01T17:19:31;20.08;;;4.50;;
39948;SDS011;29070;48.102;-1.652;2023-02-01T17:24:32;23.85;;;4.75;;
39948;SDS011;29070;48.102;-1.652;2023-02-01T17:29:32;24.77;;;7.00;;
39948;SDS011;29070;48.102;-1.652;2023-02-01T17:34:33;24.57;;;6.80;;
39948;SDS011;29070;48.102;-1.652;2023-02-01T17:39:33;32.83;;;7.20;;
39948;SDS011;29070;48.102;-1.652;2023-02-01T17:44:53;23.08;;;5.28;;
39948;SDS011;29070;48.102;-1.652;2023-02-01T17:49:56;19.17;;;4.72;;
39948;SDS011;29070;48.102;-1.652;2023-02-01T17:54:57;22.03;;;4.77;;
39948;SDS011;29070;48.102;-1.652;2023-02-01T17:59:57;16.20;;;4.90;;
39948;SDS011;29070;48.102;-1.652;2023-02-01T18:04:57;22.43;;;5.80;;
39948;SDS011;29070;48.102;-1.652;2023-02-01T18:09:59;23.40;;;5.20;;
39948;SDS011;29070;48.102;-1.652;2023-02-01T18:15:00;15.63;;;4.03;;
39948;SDS011;29070;48.102;-1.652;2023-02-01T18:20:01;22.00;;;5.10;;
39948;SDS011;29070;48.102;-1.652;2023-02-01T18:25:01;16.33;;;5.20;;
39948;SDS011;29070;48.102;-1.652;2023-02-01T18:30:02;15.30;;;5.70;;
39948;SDS011;29070;48.102;-1.652;2023-02-01T18:35:07;18.50;;;4.70;;
39948;SDS011;29070;48.102;-1.652;2023-02-01T18:50:30;22.52;;;5.65;;
39948;SDS011;29070;48.102;-1.652;2023-02-01T18:55:32;26.50;;;6.70;;
39948;SDS011;29070;48.102;-1.652;2023-02-01T19:00:33;25.90;;;6.30;;
39948;SDS011;29070;48.102;-1.652;2023-02-01T19:05:34;21.45;;;6.03;;
39948;SDS011;29070;48.102;-1.652;2023-02-01T19:10:35;27.27;;;7.80;;
39948;SDS011;29070;48.102;-1.652;2023-02-01T19:15:40;24.63;;;8.60;;
39948;SDS011;29070;48.102;-1.652;2023-02-01T19:20:41;23.80;;;7.97;;
39948;SDS011;29070;48.102;-1.652;2023-02-01T19:25:45;26.50;;;7.68;;
39948;SDS011;29070;48.102;-1.652;2023-02-01T19:30:47;25.17;;;7.03;;
39948;SDS011;29070;48.102;-1.652;2023-02-01T19:35:48;19.50;;;6.82;;
39948;SDS011;29070;48.102;-1.652;2023-02-01T19:40:48;25.60;;;8.23;;
39948;SDS011;29070;48.102;-1.652;2023-02-01T19:45:48;22.83;;;6.67;;
39948;SDS011;29070;48.102;-1.652;2023-02-01T19:50:49;29.70;;;8.77;;
39948;SDS011;29070;48.102;-1.652;2023-02-01T19:55:49;20.35;;;5.70;;
39948;SDS011;29070;48.102;-1.652;2023-02-01T20:00:53;17.60;;;5.60;;
39948;SDS011;29070;48.102;-1.652;2023-02-01T20:05:55;24.15;;;6.30;;
39948;SDS011;29070;48.102;-1.652;2023-02-01T20:10:57;17.98;;;5.60;;
39948;SDS011;29070;48.102;-1.652;2023-02-01T20:15:58;19.63;;;5.00;;
39948;SDS011;29070;48.102;-1.652;2023-02-01T20:20:59;27.02;;;6.35;;
39948;SDS011;29070;48.102;-1.652;2023-02-01T20:26:00;24.37;;;6.10;;
39948;SDS011;29070;48.102;-1.652;2023-02-01T20:31:01;17.27;;;5.32;;
39948;SDS011;29070;48.102;-1.652;2023-02-01T20:36:03;18.13;;;4.37;;
39948;SDS011;29070;48.102;-1.652;2023-02-01T20:41:04;16.20;;;4.97;;
39948;SDS011;29070;48.102;-1.652;2023-02-01T20:46:06;16.25;;;5.43;;
39948;SDS011;29070;48.102;-1.652;2023-02-01T20:51:08;18.98;;;5.15;;
39948;SDS011;29070;48.102;-1.652;2023-02-01T20:56:11;16.25;;;3.70;;
39948;SDS011;29070;48.102;-1.652;2023-02-01T21:01:12;17.88;;;4.63;;
39948;SDS011;29070;48.102;-1.652;2023-02-01T21:06:13;17.08;;;3.92;;
39948;SDS011;29070;48.102;-1.652;2023-02-01T21:11:13;12.77;;;3.83;;
39948;SDS011;29070;48.102;-1.652;2023-02-01T21:16:15;16.20;;;3.97;;
39948;SDS011;29070;48.102;-1.652;2023-02-01T21:21:18;15.25;;;3.55;;
39948;SDS011;29070;48.102;-1.652;2023-02-01T21:26:20;12.07;;;3.30;;
39948;SDS011;29070;48.102;-1.652;2023-02-01T21:31:22;15.95;;;3.85;;
39948;SDS011;29070;48.102;-1.652;2023-02-01T21:36:24;10.65;;;3.38;;
39948;SDS011;29070;48.102;-1.652;2023-02-01T21:41:30;12.02;;;3.08;;
39948;SDS011;29070;48.102;-1.652;2023-02-01T21:46:50;15.05;;;3.25;;
39948;SDS011;29070;48.102;-1.652;2023-02-01T21:51:51;12.60;;;3.13;;
39948;SDS011;29070;48.102;-1.652;2023-02-01T21:56:51;23.13;;;3.58;;
39948;SDS011;29070;48.102;-1.652;2023-02-01T22:01:51;13.60;;;3.10;;
39948;SDS011;29070;48.102;-1.652;2023-02-01T22:06:52;11.03;;;3.23;;
39948;SDS011;29070;48.102;-1.652;2023-02-01T22:11:53;8.83;;;2.97;;
39948;SDS011;29070;48.102;-1.652;2023-02-01T22:16:54;11.90;;;2.88;;
39948;SDS011;29070;48.102;-1.652;2023-02-01T22:21:54;12.98;;;3.13;;
39948;SDS011;29070;48.102;-1.652;2023-02-01T22:26:55;12.57;;;2.60;;
39948;SDS011;29070;48.102;-1.652;2023-02-01T22:31:55;16.30;;;3.60;;
39948;SDS011;29070;48.102;-1.652;2023-02-01T22:36:55;10.63;;;2.90;;
39948;SDS011;29070;48.102;-1.652;2023-02-01T22:41:56;12.33;;;2.90;;
39948;SDS011;29070;48.102;-1.652;2023-02-01T22:46:56;14.07;;;2.93;;
39948;SDS011;29070;48.102;-1.652;2023-02-01T22:51:56;15.33;;;3.20;;
39948;SDS011;29070;48.102;-1.652;2023-02-01T22:56:58;10.65;;;3.53;;
39948;SDS011;29070;48.102;-1.652;2023-02-01T23:01:59;11.88;;;2.70;;
39948;SDS011;29070;48.102;-1.652;2023-02-01T23:06:59;10.03;;;2.80;;
39948;SDS011;29070;48.102;-1.652;2023-02-01T23:11:59;12.10;;;3.50;;
39948;SDS011;29070;48.102;-1.652;2023-02-01T23:17:00;11.87;;;3.43;;
39948;SDS011;29070;48.102;-1.652;2023-02-01T23:22:00;15.23;;;3.10;;
39948;SDS011;29070;48.102;-1.652;2023-02-01T23:27:00;14.60;;;3.50;;
39948;SDS011;29070;48.102;-1.652;2023-02-01T23:32:01;12.57;;;2.80;;
39948;SDS011;29070;48.102;-1.652;2023-02-01T23:37:02;13.47;;;3.23;;
39948;SDS011;29070;48.102;-1.652;2023-02-01T23:42:02;19.48;;;2.88;;
39948;SDS011;29070;48.102;-1.652;2023-02-01T23:47:03;7.93;;;2.33;;
39948;SDS011;29070;48.102;-1.652;2023-02-01T23:52:04;14.50;;;2.97;;
39948;SDS011;29070;48.102;-1.652;2023-02-01T23:57:05;12.35;;;2.88;;
